Cuchillo, New Mexico
Current Conditions -  °F | °C
As of 10:53 AM on Thursday 30 Oct 2014 (Local Time) from KTCS Reporting Station
Clear Clear  
Wind Chill: 67°   Ceiling: Unl
Heat Index: 67°   Visibility: 10mi
Dew Point: 27°   Wind: 7mph
Humidity: 22%   Direction: 30°NNE
Pressure: 30.3"   Gusts: NA
Location:  33.1866°N, 106.845°W
Report Text: KTCS 301653Z AUTO 03006KT 10SM CLR 19/M03 A3030 RMK AO2 SLP204 T01941028 TSNO
Loading
Personal Weather Stations






























Interactive Weather Map
Tropical Storm Tracking
New forecast layout! Learn more

10-Day Weather Forecast

Advertisements
Track Severe Weather on mobile